Time;durP1;ratioP1;P1;durP2;ratioP2;P2;SDS_P1;SDS_P2;PMS_P1;PMS_P2;Temp;Humidity;BMP_temperature;BMP_pressure;BME280_temperature;BME280_humidity;BME280_pressure;Samples;Min_cycle;Max_cycle;Signal;HPM_P1;HPM_P2
2022/08/08 00:01:15;;;;;;;;;;;;;;;;;;;;;
2022/08/08 00:04:15;;;;;;;;;;;;;;;;;;;;;
2022/08/08 00:07:14;;;;;;;;;;;14.10;99.90;;;;;;6155042;23;19939;-79
2022/08/08 00:10:23;;;;;;;;;;;14.00;99.90;;;;;;6119530;23;19921;-80
2022/08/08 00:24:06;;;;;;;;;;;14.00;99.90;;;;;;6170562;23;19916;-79
2022/08/08 00:27:05;;;;;;;;;;;13.90;99.90;;;;;;6076106;23;19916;-79
2022/08/08 00:36:44;;;;;;;;;;;13.90;99.90;;;;;;6102283;23;20427;-79
2022/08/08 00:39:51;;;;;;;;;;;;;;;;;;;;;
2022/08/08 00:43:11;;;;;;;;;;;;;;;;;;;;;
2022/08/08 00:52:54;;;;;;;;;;;13.80;99.90;;;;;;5957792;24;19919;-80
2022/08/08 01:16:56;;;;;;;;;;;13.70;99.90;;;;;;6009862;23;19918;-79
2022/08/08 01:19:41;;;;;;;;;;;13.70;99.90;;;;;;6009486;23;20356;-79
2022/08/08 01:22:46;;;;;;;;;;;13.70;99.90;;;;;;6174689;23;19917;-80
2022/08/08 01:33:03;;;;;;;;;;;13.70;99.90;;;;;;6069352;23;19984;-78
2022/08/08 01:39:49;;;;;;;;;;;13.70;99.90;;;;;;5926197;24;19919;-81
2022/08/08 01:52:58;;;;;;;;;;;13.80;99.90;;;;;;5944189;24;19922;-79
2022/08/08 02:05:35;;;;;;;;;;;;;;;;;;;;;
2022/08/08 02:22:55;;;;;;;;;;;13.80;99.90;;;;;;5852172;24;20052;-79
2022/08/08 02:26:30;;;;;;;;;;;13.80;99.90;;;;;;5871448;24;19927;-79
2022/08/08 02:36:49;;;;;;;;;;;13.80;99.90;;;;;;5871596;24;19919;-80
2022/08/08 02:39:58;;;;;;;;;;;13.80;99.90;;;;;;5856605;24;20037;-80
2022/08/08 02:53:35;;;;;;;;;;;13.80;99.90;;;;;;5908283;24;19981;-80
2022/08/08 03:06:33;;;;;;;;;;;;;;;;;;;;;
2022/08/08 03:17:27;;;;;;;;;;;;;;;;;;;;;
2022/08/08 03:54:49;;;;;;;;;;;;;;;;;;;;;
2022/08/08 04:33:39;;;;;;;;;;;;;;;;;;;;;
2022/08/08 05:18:00;;;;;;;;;;;14.80;99.90;;;;;;6270709;22;19943;-77
2022/08/08 05:23:48;;;;;;;;;;;14.80;99.90;;;;;;6278775;22;19914;-80
2022/08/08 05:41:40;;;;;;;;;;;;;;;;;;;;;
2022/08/08 05:44:54;;;;;;;;;;;;;;;;;;;;;
2022/08/08 05:48:00;;;;;;;;;;;;;;;;;;;;;
2022/08/08 05:50:29;;;;;;;;;;;15.90;99.90;;;;;;6034826;23;19957;-79
2022/08/08 05:53:06;;;;;;;;;;;16.10;99.90;;;;;;6097463;23;19954;-80
2022/08/08 05:55:35;;;;;;;;;;;16.30;99.90;;;;;;6213318;22;20285;-79
2022/08/08 05:58:07;;;;;;;;;;;16.50;99.90;;;;;;6226036;22;19919;-81
2022/08/08 06:00:54;;;;;;;;;;;16.80;99.90;;;;;;6225922;22;19950;-79
2022/08/08 06:03:22;;;;;;;;;;;17.10;99.90;;;;;;6225562;22;19919;-79
2022/08/08 06:06:10;;;;;;;;;;;17.50;99.90;;;;;;6226206;22;19915;-80
2022/08/08 06:08:37;;;;;;;;;;;17.80;99.90;;;;;;6226386;22;19915;-81
2022/08/08 06:11:05;;;;;;;;;;;18.20;99.90;;;;;;6227043;22;20194;-82
2022/08/08 06:13:31;;;;;;;;;;;18.50;99.90;;;;;;6226263;22;19950;-81
2022/08/08 06:15:57;;;;;;;;;;;18.70;99.90;;;;;;6251222;22;20388;-80
2022/08/08 06:18:30;;;;;;;;;;;18.90;99.90;;;;;;6251508;22;19956;-81
2022/08/08 06:20:57;;;;;;;;;;;19.20;99.90;;;;;;6251295;22;19919;-81
2022/08/08 06:23:33;;;;;;;;;;;19.30;99.90;;;;;;6226130;22;19953;-80
2022/08/08 06:26:15;;;;;;;;;;;19.40;99.90;;;;;;6201094;22;19915;-79
2022/08/08 06:29:04;;;;;;;;;;;19.50;99.90;;;;;;6227010;22;19994;-81
2022/08/08 06:31:42;;;;;;;;;;;19.60;99.90;;;;;;6225844;22;20337;-77
2022/08/08 06:34:15;;;;;;;;;;;19.30;99.90;;;;;;6230405;22;19922;-78
2022/08/08 06:36:44;;;;;;;;;;;19.50;99.90;;;;;;6219153;23;19919;-78
2022/08/08 06:39:18;;;;;;;;;;;19.50;99.90;;;;;;6194688;23;19991;-80
2022/08/08 06:42:11;;;;;;;;;;;19.40;99.90;;;;;;6214620;23;20341;-78
2022/08/08 06:44:39;;;;;;;;;;;19.60;99.90;;;;;;6213516;23;19961;-79
2022/08/08 06:47:20;;;;;;;;;;;19.60;99.90;;;;;;6214802;23;19925;-77
2022/08/08 06:49:52;;;;;;;;;;;19.60;99.90;;;;;;6166098;23;20349;-79
2022/08/08 06:52:22;;;;;;;;;;;19.50;99.90;;;;;;6213721;23;19955;-78
2022/08/08 06:55:12;;;;;;;;;;;;;;;;;;;;;
2022/08/08 06:57:38;;;;;;;;;;;19.30;99.90;;;;;;6189520;23;20259;-77
2022/08/08 07:00:05;;;;;;;;;;;19.30;99.90;;;;;;6164165;23;19916;-78
2022/08/08 07:02:39;;;;;;;;;;;19.30;99.90;;;;;;6214548;23;19966;-78
2022/08/08 07:05:24;;;;;;;;;;;19.30;99.90;;;;;;6189059;23;20250;-78
2022/08/08 07:08:35;;;;;;;;;;;;;;;;;;;;;
2022/08/08 07:11:31;;;;;;;;;;;;;;;;;;;;;
2022/08/08 07:14:15;;;;;;;;;;;19.40;99.90;;;;;;6245609;22;19915;-78
2022/08/08 07:17:06;;;;;;;;;;;19.50;99.90;;;;;;6225012;22;19972;-79
2022/08/08 07:19:43;;;;;;;;;;;19.40;99.90;;;;;;6212207;22;19915;-78
2022/08/08 07:22:16;;;;;;;;;;;19.40;99.90;;;;;;6209125;23;20352;-77
2022/08/08 07:25:06;;;;;;;;;;;19.40;99.90;;;;;;6184749;23;20421;-76
2022/08/08 07:31:04;;;;;;;;;;;19.70;99.90;;;;;;6143496;23;19927;-77
2022/08/08 07:33:50;;;;;;;;;;;;;;;;;;;;;
2022/08/08 07:36:34;;;;;;;;;;;19.70;99.90;;;;;;6157127;23;20414;-79
2022/08/08 07:42:16;;;;;;;;;;;19.80;99.90;;;;;;6183603;23;19920;-77
2022/08/08 07:44:58;;;;;;;;;;;20.00;99.90;;;;;;6157705;23;19948;-77
2022/08/08 07:47:41;;;;;;;;;;;20.20;99.90;;;;;;6183662;23;19931;-75
2022/08/08 07:50:15;;;;;;;;;;;20.30;99.90;;;;;;6155098;23;19952;-76
2022/08/08 07:53:16;;;;;;;;;;;;;;;;;;;;;
2022/08/08 08:38:22;;;;;;;;;;;20.40;99.90;;;;;;6267104;22;19919;-73
2022/08/08 08:40:48;;;;;;;;;;;20.40;99.90;;;;;;6226895;22;19915;-74
2022/08/08 08:43:15;;;;;;;;;;;20.40;99.90;;;;;;6252094;22;20289;-75
2022/08/08 08:45:41;;;;;;;;;;;20.30;99.90;;;;;;6251914;22;19938;-74
2022/08/08 08:48:13;;;;;;;;;;;20.10;99.90;;;;;;6226811;22;19915;-75
2022/08/08 08:51:12;;;;;;;;;;;20.20;99.90;;;;;;6226566;22;19919;-75
2022/08/08 08:53:59;;;;;;;;;;;20.20;99.90;;;;;;6251704;22;19919;-77
2022/08/08 09:00:21;;;;;;;;;;;20.30;99.90;;;;;;6184714;23;20322;-76
2022/08/08 09:17:01;;;;;;;;;;;20.10;99.90;;;;;;5899478;24;19926;-72
2022/08/08 09:26:42;;;;;;;;;;;20.20;99.90;;;;;;5940248;24;20322;-72
2022/08/08 09:29:16;;;;;;;;;;;20.20;99.90;;;;;;5958872;24;19919;-76
2022/08/08 09:35:21;;;;;;;;;;;20.30;99.90;;;;;;6183105;23;19915;-78
2022/08/08 09:45:25;;;;;;;;;;;20.80;99.90;;;;;;6156413;23;20769;-79
2022/08/08 09:49:02;;;;;;;;;;;20.90;99.90;;;;;;6133670;23;19967;-79
2022/08/08 09:55:18;;;;;;;;;;;21.30;99.90;;;;;;6026333;23;19917;-75
2022/08/08 09:57:45;;;;;;;;;;;21.40;99.90;;;;;;6140482;22;19928;-76
2022/08/08 10:00:11;;;;;;;;;;;21.50;99.90;;;;;;6277445;22;19915;-77
2022/08/08 10:02:38;;;;;;;;;;;21.50;99.90;;;;;;6251443;22;19922;-77
2022/08/08 10:05:15;;;;;;;;;;;21.70;99.90;;;;;;6249956;22;19926;-78
2022/08/08 10:07:49;;;;;;;;;;;21.70;99.90;;;;;;6250008;22;20250;-73
2022/08/08 10:10:25;;;;;;;;;;;21.80;99.90;;;;;;6224490;22;19923;-75
2022/08/08 10:12:50;;;;;;;;;;;21.80;99.90;;;;;;6276694;22;19972;-73
2022/08/08 10:15:16;;;;;;;;;;;21.90;99.90;;;;;;6250642;22;19986;-74
2022/08/08 10:17:43;;;;;;;;;;;21.90;99.90;;;;;;6224796;22;19919;-73
2022/08/08 10:20:09;;;;;;;;;;;22.00;99.90;;;;;;6250912;22;19981;-73
2022/08/08 10:22:40;;;;;;;;;;;22.00;99.90;;;;;;6251140;22;19923;-73
2022/08/08 10:25:06;;;;;;;;;;;22.00;99.90;;;;;;6226348;22;20246;-72
2022/08/08 10:27:39;;;;;;;;;;;22.20;99.90;;;;;;6251381;22;19919;-73
2022/08/08 10:30:05;;;;;;;;;;;22.20;99.90;;;;;;6251029;22;19919;-73
2022/08/08 10:32:31;;;;;;;;;;;22.10;99.90;;;;;;6222760;22;19934;-73
2022/08/08 10:34:58;;;;;;;;;;;22.30;99.90;;;;;;6249723;22;19990;-74
2022/08/08 10:37:26;;;;;;;;;;;22.40;99.90;;;;;;6249009;22;19919;-71
2022/08/08 10:39:53;;;;;;;;;;;22.40;99.90;;;;;;6223418;22;19927;-73
2022/08/08 10:42:19;;;;;;;;;;;22.60;99.90;;;;;;6249876;22;19923;-73
2022/08/08 10:44:44;;;;;;;;;;;22.60;99.90;;;;;;6249572;22;19969;-77
2022/08/08 10:47:11;;;;;;;;;;;22.50;99.90;;;;;;6224288;22;19965;-76
2022/08/08 10:49:39;;;;;;;;;;;22.40;99.90;;;;;;6249410;22;19962;-73
2022/08/08 10:52:04;;;;;;;;;;;22.40;99.90;;;;;;6224477;22;20250;-73
2022/08/08 10:54:30;;;;;;;;;;;22.40;99.90;;;;;;6249354;22;19927;-73
2022/08/08 10:56:57;;;;;;;;;;;22.40;99.90;;;;;;6249726;22;20349;-77
2022/08/08 10:59:27;;;;;;;;;;;22.50;99.90;;;;;;6248745;22;19931;-73
2022/08/08 11:01:55;;;;;;;;;;;22.50;99.90;;;;;;6249212;22;20200;-73
2022/08/08 11:04:21;;;;;;;;;;;22.60;99.90;;;;;;6224886;22;19919;-76
2022/08/08 11:06:46;;;;;;;;;;;22.70;99.90;;;;;;6224355;22;19919;-70
2022/08/08 11:09:12;;;;;;;;;;;22.60;99.90;;;;;;6248664;22;19919;-74
2022/08/08 11:11:43;;;;;;;;;;;22.80;99.90;;;;;;6223849;22;19941;-76
2022/08/08 11:14:09;;;;;;;;;;;22.90;99.90;;;;;;6249324;22;20385;-75
2022/08/08 11:16:35;;;;;;;;;;;22.80;99.90;;;;;;6223898;22;19990;-76
2022/08/08 11:19:07;;;;;;;;;;;22.90;99.90;;;;;;6223831;22;19919;-77
2022/08/08 11:21:39;;;;;;;;;;;22.90;99.90;;;;;;6223559;22;20214;-74
2022/08/08 11:24:08;;;;;;;;;;;22.90;99.90;;;;;;6249306;22;19919;-71
2022/08/08 11:26:35;;;;;;;;;;;22.80;99.90;;;;;;6249034;22;19994;-71
2022/08/08 11:29:02;;;;;;;;;;;22.80;99.90;;;;;;6248363;22;19994;-70
2022/08/08 11:31:32;;;;;;;;;;;22.70;99.90;;;;;;6248875;22;20318;-69
2022/08/08 11:34:02;;;;;;;;;;;22.60;99.90;;;;;;6276183;22;20335;-70
2022/08/08 11:36:27;;;;;;;;;;;22.60;99.90;;;;;;6223346;22;19919;-71
2022/08/08 11:38:54;;;;;;;;;;;22.60;99.90;;;;;;6248421;22;20004;-71
2022/08/08 11:41:21;;;;;;;;;;;22.70;99.90;;;;;;6275514;22;19922;-71
2022/08/08 11:43:47;;;;;;;;;;;22.80;99.90;;;;;;6248140;22;19919;-70
2022/08/08 11:46:13;;;;;;;;;;;22.90;99.90;;;;;;6277457;22;19959;-70
2022/08/08 11:48:39;;;;;;;;;;;23.00;99.90;;;;;;6250462;22;20009;-69
2022/08/08 11:51:05;;;;;;;;;;;23.30;99.90;;;;;;6249339;22;19915;-70
2022/08/08 11:53:31;;;;;;;;;;;23.60;99.90;;;;;;6248695;22;20249;-68
2022/08/08 11:55:57;;;;;;;;;;;23.70;99.90;;;;;;6248379;22;19923;-69
2022/08/08 11:58:32;;;;;;;;;;;23.70;99.90;;;;;;6249707;22;19915;-69
2022/08/08 12:00:58;;;;;;;;;;;23.50;99.90;;;;;;6225622;22;20288;-69
2022/08/08 12:03:32;;;;;;;;;;;23.20;99.90;;;;;;6250765;22;19926;-70
2022/08/08 12:05:57;;;;;;;;;;;23.30;99.70;;;;;;6278006;22;19919;-71
2022/08/08 12:08:33;;;;;;;;;;;23.00;99.90;;;;;;6225384;22;19994;-71
2022/08/08 12:11:00;;;;;;;;;;;23.20;99.90;;;;;;6250805;22;19930;-68
2022/08/08 12:13:26;;;;;;;;;;;23.20;99.90;;;;;;6250668;22;19945;-68
2022/08/08 12:15:52;;;;;;;;;;;23.30;99.90;;;;;;6250563;22;19923;-69
2022/08/08 12:18:22;;;;;;;;;;;23.50;99.80;;;;;;6250902;22;19926;-71
2022/08/08 12:20:51;;;;;;;;;;;23.50;99.90;;;;;;6277715;22;19942;-69
2022/08/08 12:23:27;;;;;;;;;;;23.50;99.30;;;;;;6250607;22;20289;-68
2022/08/08 12:25:53;;;;;;;;;;;23.30;99.60;;;;;;6250433;22;19919;-70
2022/08/08 12:28:19;;;;;;;;;;;23.10;99.90;;;;;;6250891;22;19990;-70
2022/08/08 12:30:44;;;;;;;;;;;23.00;99.90;;;;;;6250674;22;20269;-69
2022/08/08 12:33:23;;;;;;;;;;;22.70;99.90;;;;;;6250620;22;20227;-68
2022/08/08 12:35:49;;;;;;;;;;;22.50;99.90;;;;;;6277659;22;19923;-71
2022/08/08 12:38:14;;;;;;;;;;;22.30;99.90;;;;;;6226199;22;19926;-68
2022/08/08 12:40:40;;;;;;;;;;;22.30;99.90;;;;;;6226362;22;19992;-75
2022/08/08 12:43:06;;;;;;;;;;;22.20;99.90;;;;;;6226347;22;20338;-69
2022/08/08 12:45:32;;;;;;;;;;;22.10;99.90;;;;;;6226216;22;20321;-69
2022/08/08 12:48:01;;;;;;;;;;;22.00;99.90;;;;;;6251683;22;19987;-69
2022/08/08 12:50:37;;;;;;;;;;;22.00;99.90;;;;;;6213864;22;20250;-68
2022/08/08 12:53:02;;;;;;;;;;;22.00;99.90;;;;;;6251880;22;19994;-69
2022/08/08 12:55:28;;;;;;;;;;;22.10;99.90;;;;;;6251617;22;19954;-69
2022/08/08 12:57:53;;;;;;;;;;;22.10;99.90;;;;;;6251447;22;19923;-69
2022/08/08 13:00:25;;;;;;;;;;;22.00;99.90;;;;;;6226541;22;19977;-68
2022/08/08 13:02:56;;;;;;;;;;;22.00;99.90;;;;;;6226660;22;20249;-70
2022/08/08 13:05:23;;;;;;;;;;;22.10;99.90;;;;;;6226183;22;20002;-68
2022/08/08 13:07:48;;;;;;;;;;;22.20;99.90;;;;;;6251628;22;19919;-68
2022/08/08 13:10:15;;;;;;;;;;;22.50;99.90;;;;;;6251564;22;19927;-68
2022/08/08 13:12:41;;;;;;;;;;;22.70;99.90;;;;;;6251202;22;19919;-69
2022/08/08 13:15:07;;;;;;;;;;;22.70;99.90;;;;;;6251556;22;19919;-68
2022/08/08 13:17:34;;;;;;;;;;;22.80;99.90;;;;;;6251684;22;19926;-68
2022/08/08 13:20:00;;;;;;;;;;;22.70;99.90;;;;;;6278224;22;19935;-68
2022/08/08 13:22:47;;;;;;;;;;;22.70;99.90;;;;;;6249435;22;20334;-71
2022/08/08 13:25:17;;;;;;;;;;;22.60;99.90;;;;;;6212487;23;19974;-68
2022/08/08 13:27:43;;;;;;;;;;;22.50;99.90;;;;;;6214432;23;19942;-68
2022/08/08 13:30:10;;;;;;;;;;;22.20;99.90;;;;;;6188951;23;19959;-68
2022/08/08 13:32:37;;;;;;;;;;;22.10;99.90;;;;;;6214270;23;19947;-68
2022/08/08 13:35:05;;;;;;;;;;;22.00;99.90;;;;;;6188874;23;19991;-67
2022/08/08 13:37:30;;;;;;;;;;;22.00;99.90;;;;;;6157046;23;20259;-68
2022/08/08 13:39:56;;;;;;;;;;;22.00;99.90;;;;;;6184116;23;19920;-69
2022/08/08 13:42:50;;;;;;;;;;;21.90;99.90;;;;;;6124628;23;20347;-71
2022/08/08 13:45:22;;;;;;;;;;;22.00;99.90;;;;;;6132290;23;19947;-73
2022/08/08 13:48:26;;;;;;;;;;;22.00;99.90;;;;;;6161378;23;19916;-72
2022/08/08 13:51:10;;;;;;;;;;;22.10;99.90;;;;;;6162266;23;19959;-72
2022/08/08 13:53:39;;;;;;;;;;;22.50;99.90;;;;;;6158999;23;20335;-72
2022/08/08 13:56:07;;;;;;;;;;;22.80;99.90;;;;;;6186312;23;19920;-71
2022/08/08 13:58:54;;;;;;;;;;;23.00;99.90;;;;;;6220009;23;19922;-72
2022/08/08 14:05:14;;;;;;;;;;;23.50;99.90;;;;;;6210812;23;19922;-76
2022/08/08 14:07:44;;;;;;;;;;;23.50;99.90;;;;;;6221431;23;20319;-74
2022/08/08 14:10:11;;;;;;;;;;;23.10;99.90;;;;;;6220566;23;20390;-75
2022/08/08 14:12:38;;;;;;;;;;;23.10;99.50;;;;;;6220762;23;19943;-74
2022/08/08 14:15:05;;;;;;;;;;;23.30;99.40;;;;;;6195259;23;20345;-75
2022/08/08 14:17:30;;;;;;;;;;;23.70;99.90;;;;;;6220311;23;19919;-74
2022/08/08 14:20:01;;;;;;;;;;;23.60;99.90;;;;;;6194825;23;19923;-73
2022/08/08 14:22:27;;;;;;;;;;;23.60;99.90;;;;;;6220433;23;19965;-74
2022/08/08 14:24:59;;;;;;;;;;;23.70;99.50;;;;;;6195533;23;19920;-75
2022/08/08 14:27:26;;;;;;;;;;;23.90;99.50;;;;;;6220920;23;19942;-73
2022/08/08 14:29:57;;;;;;;;;;;24.00;99.20;;;;;;6221124;23;20002;-74
2022/08/08 14:32:22;;;;;;;;;;;24.00;98.80;;;;;;6195687;23;19919;-75
2022/08/08 14:34:49;;;;;;;;;;;24.20;99.20;;;;;;6220817;23;19916;-75
2022/08/08 14:37:18;;;;;;;;;;;24.20;98.50;;;;;;6224132;22;20323;-75
2022/08/08 14:39:48;;;;;;;;;;;24.30;97.40;;;;;;6250568;22;19919;-75
2022/08/08 14:42:14;;;;;;;;;;;24.30;97.40;;;;;;6250879;22;19915;-73
2022/08/08 14:44:51;;;;;;;;;;;24.30;96.90;;;;;;6250481;22;20386;-80
2022/08/08 14:47:17;;;;;;;;;;;24.50;96.20;;;;;;6251268;22;20293;-75
2022/08/08 14:49:43;;;;;;;;;;;24.50;95.80;;;;;;6250541;22;19919;-78
2022/08/08 14:52:08;;;;;;;;;;;24.50;96.20;;;;;;6251157;22;19923;-74
2022/08/08 14:54:43;;;;;;;;;;;24.70;96.20;;;;;;6251157;22;19919;-77
2022/08/08 14:57:09;;;;;;;;;;;25.00;95.80;;;;;;6225902;22;19923;-77
2022/08/08 14:59:34;;;;;;;;;;;25.00;96.30;;;;;;6251181;22;19927;-76
2022/08/08 15:02:04;;;;;;;;;;;25.20;95.50;;;;;;6200624;22;19954;-77
2022/08/08 15:04:32;;;;;;;;;;;25.40;94.10;;;;;;6251429;22;19990;-76
2022/08/08 15:06:58;;;;;;;;;;;25.10;95.10;;;;;;6250674;22;19920;-77
2022/08/08 15:09:24;;;;;;;;;;;25.00;95.90;;;;;;6250739;22;19919;-77
2022/08/08 15:11:49;;;;;;;;;;;25.30;96.20;;;;;;6251184;22;19997;-75
2022/08/08 15:14:15;;;;;;;;;;;25.60;93.80;;;;;;6250908;22;19919;-77
2022/08/08 15:16:41;;;;;;;;;;;25.60;94.00;;;;;;6250682;22;20389;-75
2022/08/08 15:19:06;;;;;;;;;;;25.60;94.90;;;;;;6200576;22;20331;-76
2022/08/08 15:21:32;;;;;;;;;;;25.50;94.90;;;;;;6250802;22;19919;-73
2022/08/08 15:23:58;;;;;;;;;;;25.40;94.90;;;;;;6250825;22;19919;-76
2022/08/08 15:26:23;;;;;;;;;;;25.50;95.40;;;;;;6200266;22;19946;-76
2022/08/08 15:28:49;;;;;;;;;;;25.10;95.00;;;;;;6250761;22;19927;-72
2022/08/08 15:31:17;;;;;;;;;;;25.30;94.80;;;;;;6250785;22;20338;-73
2022/08/08 15:34:01;;;;;;;;;;;25.10;95.10;;;;;;6250673;22;19946;-75
2022/08/08 15:36:36;;;;;;;;;;;25.50;93.80;;;;;;6225168;22;19951;-75
2022/08/08 15:39:10;;;;;;;;;;;25.20;93.30;;;;;;6197781;23;19978;-77
2022/08/08 15:41:36;;;;;;;;;;;24.90;94.30;;;;;;6224020;22;20276;-76
2022/08/08 15:44:01;;;;;;;;;;;25.20;93.50;;;;;;6225648;22;19922;-78
2022/08/08 15:46:27;;;;;;;;;;;25.80;92.80;;;;;;6250800;22;19941;-76
2022/08/08 15:48:52;;;;;;;;;;;25.70;92.60;;;;;;6250591;22;19915;-79
2022/08/08 15:51:20;;;;;;;;;;;25.80;92.50;;;;;;6250620;22;19919;-80
2022/08/08 15:53:45;;;;;;;;;;;26.10;92.60;;;;;;6250559;22;20326;-77
2022/08/08 15:56:11;;;;;;;;;;;26.40;92.60;;;;;;6250343;22;19919;-84
2022/08/08 15:58:36;;;;;;;;;;;27.00;91.50;;;;;;6250556;22;20378;-75
2022/08/08 16:01:02;;;;;;;;;;;26.90;91.50;;;;;;6225559;22;19942;-76
2022/08/08 16:03:40;;;;;;;;;;;27.10;90.90;;;;;;6249411;22;19927;-81
2022/08/08 16:06:07;;;;;;;;;;;27.20;90.60;;;;;;6252557;22;19919;-78
2022/08/08 16:11:58;;;;;;;;;;;27.20;90.10;;;;;;6276416;22;19961;-83
2022/08/08 16:14:24;;;;;;;;;;;27.60;87.30;;;;;;6248611;22;19922;-79
2022/08/08 16:16:50;;;;;;;;;;;27.10;88.40;;;;;;6248829;22;19919;-82
2022/08/08 16:19:16;;;;;;;;;;;27.10;89.30;;;;;;6224308;22;20345;-78
2022/08/08 16:21:42;;;;;;;;;;;27.10;90.10;;;;;;6249457;22;19919;-80
2022/08/08 16:24:11;;;;;;;;;;;27.30;88.70;;;;;;6224339;22;19965;-79
2022/08/08 16:26:37;;;;;;;;;;;26.60;88.80;;;;;;6248407;22;19926;-76
2022/08/08 16:29:04;;;;;;;;;;;25.80;90.70;;;;;;6223996;22;19919;-78
2022/08/08 16:31:29;;;;;;;;;;;25.10;90.90;;;;;;6224367;22;20391;-77
2022/08/08 16:33:55;;;;;;;;;;;24.40;92.00;;;;;;6249503;22;19947;-78
2022/08/08 16:36:21;;;;;;;;;;;24.00;93.60;;;;;;6223440;22;19969;-77
2022/08/08 16:38:46;;;;;;;;;;;23.20;95.90;;;;;;6224403;22;20294;-77
2022/08/08 16:41:12;;;;;;;;;;;22.80;97.00;;;;;;6248828;22;19938;-72
2022/08/08 16:43:38;;;;;;;;;;;22.50;97.80;;;;;;6223839;22;19915;-76
2022/08/08 16:46:03;;;;;;;;;;;22.30;98.90;;;;;;6250271;22;20337;-76
2022/08/08 16:48:29;;;;;;;;;;;22.10;99.20;;;;;;6249327;22;19941;-75
2022/08/08 16:50:54;;;;;;;;;;;21.90;99.80;;;;;;6225538;22;19919;-75
2022/08/08 16:53:20;;;;;;;;;;;21.70;99.90;;;;;;6226064;22;19926;-75
2022/08/08 16:55:46;;;;;;;;;;;21.60;99.90;;;;;;6251937;22;19919;-76
2022/08/08 16:58:14;;;;;;;;;;;21.50;99.90;;;;;;6252154;22;19920;-75
2022/08/08 17:00:43;;;;;;;;;;;21.40;99.90;;;;;;6201067;22;19923;-76
2022/08/08 17:03:08;;;;;;;;;;;21.20;99.90;;;;;;6226839;22;20002;-75
2022/08/08 17:05:34;;;;;;;;;;;21.10;99.90;;;;;;6226554;22;19961;-74
2022/08/08 17:07:59;;;;;;;;;;;20.90;99.90;;;;;;6278565;22;19919;-75
2022/08/08 17:10:25;;;;;;;;;;;20.90;99.90;;;;;;6226583;22;19926;-75
2022/08/08 17:12:50;;;;;;;;;;;20.80;99.90;;;;;;6250739;22;20291;-73
2022/08/08 17:15:19;;;;;;;;;;;20.80;99.90;;;;;;6252031;22;19919;-80
2022/08/08 17:17:58;;;;;;;;;;;20.70;99.90;;;;;;6275642;22;19962;-77
2022/08/08 17:20:26;;;;;;;;;;;20.70;99.90;;;;;;6227459;22;19950;-82
2022/08/08 17:23:01;;;;;;;;;;;20.60;99.90;;;;;;6251246;22;19938;-81
2022/08/08 17:25:27;;;;;;;;;;;20.50;99.90;;;;;;6225397;22;20245;-79
2022/08/08 17:27:55;;;;;;;;;;;20.50;99.90;;;;;;6250701;22;19983;-82
2022/08/08 17:30:21;;;;;;;;;;;20.50;99.90;;;;;;6225625;22;20321;-78
2022/08/08 17:32:49;;;;;;;;;;;20.40;99.90;;;;;;6250900;22;19958;-79
2022/08/08 17:35:15;;;;;;;;;;;20.30;99.90;;;;;;6250634;22;19919;-79
2022/08/08 17:37:41;;;;;;;;;;;20.30;99.90;;;;;;6221841;22;19971;-78
2022/08/08 17:40:07;;;;;;;;;;;20.30;99.90;;;;;;6225638;22;19915;-80
2022/08/08 17:42:33;;;;;;;;;;;20.20;99.90;;;;;;6250444;22;19921;-78
2022/08/08 17:44:59;;;;;;;;;;;20.20;99.90;;;;;;6250085;22;19994;-78
2022/08/08 17:47:25;;;;;;;;;;;20.20;99.90;;;;;;6225468;22;19915;-81
2022/08/08 17:50:15;;;;;;;;;;;20.10;99.90;;;;;;6224322;22;19915;-77
2022/08/08 17:56:14;;;;;;;;;;;19.90;99.90;;;;;;6128752;23;19925;-80
2022/08/08 17:58:42;;;;;;;;;;;19.80;99.90;;;;;;6105178;23;19921;-80
2022/08/08 18:01:29;;;;;;;;;;;19.80;99.90;;;;;;6230390;22;19990;-83
2022/08/08 18:04:21;;;;;;;;;;;19.70;99.90;;;;;;6201103;22;20385;-81
2022/08/08 18:06:52;;;;;;;;;;;19.80;99.90;;;;;;6274057;22;19915;-81
2022/08/08 18:09:49;;;;;;;;;;;19.70;99.90;;;;;;6248955;22;19977;-76
2022/08/08 18:12:51;;;;;;;;;;;19.70;99.90;;;;;;6006818;23;19918;-81
2022/08/08 18:15:18;;;;;;;;;;;19.70;99.90;;;;;;5939282;23;19922;-77
2022/08/08 18:17:49;;;;;;;;;;;19.60;99.90;;;;;;6032616;23;19921;-81
2022/08/08 18:20:15;;;;;;;;;;;19.60;99.90;;;;;;6074518;23;20036;-81
2022/08/08 18:23:14;;;;;;;;;;;19.60;99.90;;;;;;6104119;23;19915;-79
2022/08/08 18:25:46;;;;;;;;;;;19.60;99.90;;;;;;6166098;23;19922;-80
2022/08/08 18:28:14;;;;;;;;;;;19.50;99.90;;;;;;6198686;23;20273;-77
2022/08/08 18:34:13;;;;;;;;;;;19.50;99.90;;;;;;6182570;23;20009;-79
2022/08/08 18:36:38;;;;;;;;;;;19.40;99.90;;;;;;6219335;23;19919;-78
2022/08/08 18:39:05;;;;;;;;;;;19.30;99.90;;;;;;6218893;23;19920;-78
2022/08/08 18:41:36;;;;;;;;;;;19.20;99.90;;;;;;6219640;23;20324;-78
2022/08/08 18:44:02;;;;;;;;;;;19.10;99.90;;;;;;6220404;22;19961;-75
2022/08/08 18:46:28;;;;;;;;;;;19.00;99.90;;;;;;6250870;22;19945;-75
2022/08/08 18:48:53;;;;;;;;;;;18.90;99.90;;;;;;6225501;22;19915;-77
2022/08/08 18:51:19;;;;;;;;;;;18.80;99.90;;;;;;6250630;22;19926;-75
2022/08/08 18:53:48;;;;;;;;;;;18.70;99.90;;;;;;6225860;22;19915;-75
2022/08/08 18:56:21;;;;;;;;;;;18.60;99.90;;;;;;6225312;22;19919;-75
2022/08/08 18:58:47;;;;;;;;;;;18.50;99.90;;;;;;6251099;22;19921;-75
2022/08/08 19:01:13;;;;;;;;;;;18.40;99.90;;;;;;6250940;22;19923;-76
2022/08/08 19:03:39;;;;;;;;;;;18.40;99.90;;;;;;6225486;22;19919;-74
2022/08/08 19:06:04;;;;;;;;;;;18.30;99.90;;;;;;6225501;22;19923;-77
2022/08/08 19:08:31;;;;;;;;;;;18.10;99.90;;;;;;6251185;22;19923;-76
2022/08/08 19:10:57;;;;;;;;;;;18.10;99.90;;;;;;6225647;22;19942;-77
2022/08/08 19:13:23;;;;;;;;;;;18.00;99.90;;;;;;6225905;22;20409;-76
2022/08/08 19:15:48;;;;;;;;;;;17.90;99.90;;;;;;6225928;22;19923;-74
2022/08/08 19:18:14;;;;;;;;;;;17.80;99.90;;;;;;6251063;22;19950;-75
2022/08/08 19:20:40;;;;;;;;;;;17.70;99.90;;;;;;6225542;22;19927;-76
2022/08/08 19:23:06;;;;;;;;;;;17.60;99.90;;;;;;6225466;22;19919;-74
2022/08/08 19:25:33;;;;;;;;;;;17.50;99.90;;;;;;6250437;22;19915;-71
2022/08/08 19:31:14;;;;;;;;;;;17.30;99.90;;;;;;6250833;22;19941;-78
2022/08/08 19:33:40;;;;;;;;;;;17.20;99.90;;;;;;6251327;22;20291;-80
2022/08/08 19:39:48;;;;;;;;;;;;;;;;;;;;;
2022/08/08 20:21:44;;;;;;;;;;;16.20;99.90;;;;;;6270860;22;20235;-77
2022/08/08 20:41:27;;;;;;;;;;;15.80;99.90;;;;;;6274407;22;20368;-77
2022/08/08 21:01:42;;;;;;;;;;;15.30;99.90;;;;;;6269726;22;19934;-75
2022/08/08 21:04:13;;;;;;;;;;;15.30;99.90;;;;;;6226258;22;19915;-77
2022/08/08 21:21:20;;;;;;;;;;;15.10;99.90;;;;;;6271601;22;20254;-75
2022/08/08 21:40:10;;;;;;;;;;;14.80;99.90;;;;;;6274489;22;19919;-76
2022/08/08 21:42:36;;;;;;;;;;;14.80;99.90;;;;;;6276488;22;19999;-74
2022/08/08 21:45:03;;;;;;;;;;;14.70;99.90;;;;;;6251637;22;20417;-75
2022/08/08 21:47:28;;;;;;;;;;;14.70;99.90;;;;;;6251059;22;20246;-74
2022/08/08 21:49:54;;;;;;;;;;;14.60;99.90;;;;;;6225851;22;19915;-74
2022/08/08 21:52:20;;;;;;;;;;;14.60;99.90;;;;;;6250928;22;19915;-75
2022/08/08 21:54:46;;;;;;;;;;;14.50;99.90;;;;;;6225469;22;19958;-74
2022/08/08 21:57:11;;;;;;;;;;;14.50;99.90;;;;;;6226306;22;19941;-75
2022/08/08 21:59:37;;;;;;;;;;;14.50;99.90;;;;;;6226047;22;19919;-74
2022/08/08 22:02:02;;;;;;;;;;;14.50;99.90;;;;;;6225967;22;19919;-74
2022/08/08 22:04:28;;;;;;;;;;;14.50;99.90;;;;;;6251438;22;19923;-74
2022/08/08 22:06:54;;;;;;;;;;;14.50;99.90;;;;;;6225908;22;19942;-73
2022/08/08 22:09:19;;;;;;;;;;;14.50;99.90;;;;;;6225506;22;19954;-76
2022/08/08 22:11:46;;;;;;;;;;;14.40;99.90;;;;;;6225516;22;19916;-75
2022/08/08 22:14:11;;;;;;;;;;;14.30;99.90;;;;;;6251379;22;19921;-76
2022/08/08 22:16:37;;;;;;;;;;;14.30;99.90;;;;;;6250996;22;19958;-75
2022/08/08 22:19:03;;;;;;;;;;;14.30;99.90;;;;;;6225818;22;19919;-75
2022/08/08 22:21:28;;;;;;;;;;;14.20;99.90;;;;;;6226232;22;20338;-74
2022/08/08 22:23:54;;;;;;;;;;;14.20;99.90;;;;;;6251024;22;20223;-76
2022/08/08 22:26:22;;;;;;;;;;;14.20;99.90;;;;;;6250984;22;19919;-75
2022/08/08 22:28:47;;;;;;;;;;;14.10;99.90;;;;;;6225009;22;19996;-76
2022/08/08 22:31:13;;;;;;;;;;;14.00;99.90;;;;;;6225506;22;20318;-76
2022/08/08 22:33:41;;;;;;;;;;;14.00;99.90;;;;;;6250396;22;19961;-75
2022/08/08 22:36:09;;;;;;;;;;;14.00;99.90;;;;;;6250544;22;19919;-74
2022/08/08 22:38:35;;;;;;;;;;;14.00;99.90;;;;;;6250778;22;19919;-74
2022/08/08 22:41:00;;;;;;;;;;;14.00;99.90;;;;;;6224753;22;19989;-74
2022/08/08 22:43:26;;;;;;;;;;;13.90;99.90;;;;;;6225556;22;19919;-75
2022/08/08 22:45:52;;;;;;;;;;;14.00;99.90;;;;;;6250708;22;20280;-76
2022/08/08 22:48:17;;;;;;;;;;;14.00;99.90;;;;;;6225715;22;19923;-74
2022/08/08 22:50:43;;;;;;;;;;;14.00;99.90;;;;;;6225549;22;19969;-74
2022/08/08 22:53:09;;;;;;;;;;;14.00;99.90;;;;;;6250532;22;20010;-77
2022/08/08 22:55:34;;;;;;;;;;;13.90;99.90;;;;;;6225489;22;19998;-74
2022/08/08 22:58:01;;;;;;;;;;;13.90;99.90;;;;;;6277727;22;19927;-75
2022/08/08 23:00:26;;;;;;;;;;;13.90;99.90;;;;;;6225489;22;19919;-74